CheckWX is a tool to help pilots better visualize weather data.  It is not intended as a substitute for an official pre-flight weather briefing.

08:39:35 UTC

PACD METAR
Cold Bay Airport
Cold Bay, Alaska, USA
Current

21 mins ago

PACD 150819Z AUTO 24011KT 10SM FEW026 BKN034 OVC080 M01/M02 A2910 RMK AO2 SNE05 P0000 T10061022 TSNO
Observed
Nov-15 @ 08:19 UTC
Wind
  • 240° at 11 KTS
Visibility
10 SM
Flight Rules
VFR
Cloud Levels
  • Few at 2,600' AGL
  • Broken at 3,400' AGL
  • Overcast at 8,000' AGL
Temperature
-1°C / 30°F
Dewpoint
-2°C / 28°F
Humidity
93%
Altimeter
29.1" Hg
Pressure
985.42 hPa
Current Rain
0.01"
Previous

35 mins ago

PACD 150805Z AUTO 25012KT 9SM BKN028 BKN047 OVC075 M01/M02 A2910 RMK AO2 SNE05 P0000 T10061022 TSNO
Observed
Nov-15 @ 08:05 UTC
Wind
  • 250° at 12 KTS
Visibility
9 SM
Flight Rules
MVFR
Cloud Levels
  • Broken at 2,800' AGL
  • Broken at 4,700' AGL
  • Overcast at 7,500' AGL
Temperature
-1°C / 30°F
Dewpoint
-2°C / 28°F
Humidity
93%
Altimeter
29.1" Hg
Pressure
985.42 hPa
Current Rain
0.01"
Previous

47 mins ago

PACD 150753Z AUTO 24013G18KT 1 1/4SM -SN BR BKN020 OVC085 M01/M02 A2910 RMK AO2 SNE25B47 SLP855 P0001 T10061022 TSNO
Observed
Nov-15 @ 07:53 UTC
Wind
  • 240° at 13 KTS
  • Gusting to 18 KTS
Visibility
1 1/4 SM
Flight Rules
IFR
Conditions
Light Snow, Mist
Cloud Levels
  • Broken at 2,000' AGL
  • Overcast at 8,500' AGL
Temperature
-1°C / 30°F
Dewpoint
-2°C / 28°F
Humidity
93%
Altimeter
29.1" Hg
Pressure
985.42 hPa
Current Rain
0.01"